createdAt,value
2022-10-19T00:01:15.248Z,73.50
2022-10-19T00:03:43.311Z,72.03
2022-10-19T00:06:27.101Z,71.23
2022-10-19T00:09:04.488Z,71.49
2022-10-19T00:11:33.013Z,71.53
2022-10-19T00:14:01.092Z,71.40
2022-10-19T00:16:31.805Z,71.64
2022-10-19T00:19:03.350Z,71.54
2022-10-19T00:21:31.359Z,71.45
2022-10-19T00:23:59.325Z,71.10
2022-10-19T00:26:27.712Z,70.40
2022-10-19T00:28:57.321Z,70.60
2022-10-19T00:31:25.538Z,70.17
2022-10-19T00:33:55.102Z,69.82
2022-10-19T00:36:29.434Z,71.65
2022-10-19T00:38:58.415Z,73.22
2022-10-19T00:41:31.351Z,74.69
2022-10-19T00:44:03.893Z,74.40
2022-10-19T00:46:34.874Z,75.61
2022-10-19T00:49:10.869Z,75.71
2022-10-19T00:51:42.521Z,76.19
2022-10-19T00:54:10.153Z,75.73
2022-10-19T00:56:41.294Z,75.90
2022-10-19T00:59:10.053Z,76.02
2022-10-19T01:01:37.381Z,76.17
2022-10-19T01:04:05.050Z,76.11
2022-10-19T01:06:33.359Z,77.86
2022-10-19T01:09:00.242Z,78.66
2022-10-19T01:11:59.203Z,77.74
2022-10-19T01:14:47.596Z,78.17
2022-10-19T01:17:42.196Z,77.43
2022-10-19T01:20:47.354Z,77.85
2022-10-19T01:23:30.081Z,76.95
2022-10-19T01:26:02.765Z,78.04
2022-10-19T01:28:51.331Z,77.83
2022-10-19T01:31:32.522Z,78.36
2022-10-19T01:34:22.629Z,78.54
2022-10-19T01:37:18.259Z,78.66
2022-10-19T01:39:52.440Z,78.63
2022-10-19T01:42:36.619Z,77.78
2022-10-19T01:45:31.097Z,78.46
2022-10-19T01:48:12.449Z,77.38
2022-10-19T01:50:46.012Z,78.14
2022-10-19T01:53:14.793Z,77.23
2022-10-19T01:55:45.772Z,78.93
2022-10-19T01:58:17.565Z,79.24
2022-10-19T02:00:48.610Z,78.57
2022-10-19T02:03:16.505Z,78.01
2022-10-19T02:05:45.845Z,78.63
2022-10-19T02:08:18.140Z,78.10
2022-10-19T02:10:46.756Z,78.61
2022-10-19T02:13:16.254Z,77.51
2022-10-19T02:16:08.344Z,78.22
2022-10-19T02:18:40.791Z,78.26
2022-10-19T02:21:07.868Z,77.63
2022-10-19T02:23:35.454Z,77.10
2022-10-19T02:26:02.571Z,77.09
2022-10-19T02:28:31.283Z,76.63
2022-10-19T02:30:59.460Z,76.17
2022-10-19T02:33:28.252Z,76.76
2022-10-19T02:35:55.428Z,75.45
2022-10-19T02:38:24.227Z,75.19
2022-10-19T02:41:16.377Z,74.96
2022-10-19T02:43:48.082Z,75.77
2022-10-19T02:46:18.634Z,75.81
2022-10-19T02:48:46.702Z,75.96
2022-10-19T02:51:37.009Z,76.56
2022-10-19T02:54:07.063Z,76.91
2022-10-19T02:56:35.395Z,77.00
2022-10-19T02:59:03.538Z,76.97
2022-10-19T03:01:30.676Z,76.20
2022-10-19T03:03:57.729Z,75.81
2022-10-19T03:06:24.975Z,75.05
2022-10-19T03:08:54.008Z,76.28
2022-10-19T03:11:21.107Z,74.28
2022-10-19T03:16:19.769Z,73.70
2022-10-19T03:18:48.855Z,73.96
2022-10-19T03:21:16.214Z,73.72
2022-10-19T03:23:43.252Z,71.89
2022-10-19T03:26:14.396Z,71.99
2022-10-19T03:28:41.618Z,70.86
2022-10-19T03:31:08.945Z,71.58
2022-10-19T03:33:37.176Z,71.15
2022-10-19T03:36:38.075Z,72.95
2022-10-19T03:39:08.250Z,72.61
2022-10-19T03:41:37.677Z,73.17
2022-10-19T03:44:05.853Z,72.48
2022-10-19T03:46:33.285Z,73.59
2022-10-19T03:49:01.457Z,74.31
2022-10-19T03:51:33.188Z,73.50
2022-10-19T03:54:06.694Z,72.58
2022-10-19T03:56:34.892Z,73.55
2022-10-19T03:59:03.195Z,73.06
2022-10-19T04:01:39.748Z,73.74
2022-10-19T04:04:11.195Z,74.99
2022-10-19T04:06:39.876Z,77.54
2022-10-19T04:09:08.313Z,79.02
2022-10-19T04:11:35.722Z,81.12
2022-10-19T04:14:02.819Z,81.43
2022-10-19T04:16:31.496Z,81.33
2022-10-19T04:18:59.774Z,82.57
2022-10-19T04:21:27.135Z,83.04
2022-10-19T04:24:05.856Z,82.92
2022-10-19T04:26:34.457Z,82.25
2022-10-19T04:29:01.901Z,80.63
2022-10-19T04:31:29.082Z,80.57
2022-10-19T04:33:57.183Z,80.14
2022-10-19T04:36:24.616Z,78.42
2022-10-19T04:38:52.067Z,77.48
2022-10-19T04:41:21.727Z,76.21
2022-10-19T04:43:50.450Z,76.39
2022-10-19T04:46:19.644Z,76.35
2022-10-19T04:48:48.744Z,75.45
2022-10-19T04:51:16.748Z,75.92
2022-10-19T04:53:44.902Z,76.41
2022-10-19T04:56:19.006Z,77.70
2022-10-19T04:58:46.651Z,77.07
2022-10-19T05:01:16.812Z,77.10
2022-10-19T05:03:45.202Z,75.95
2022-10-19T05:06:14.143Z,75.89
2022-10-19T05:08:41.601Z,75.01
2022-10-19T05:11:11.772Z,75.48
2022-10-19T05:13:39.626Z,74.99
2022-10-19T05:16:11.219Z,73.96
2022-10-19T05:18:38.827Z,73.42
2022-10-19T05:21:11.753Z,72.88
2022-10-19T05:23:39.460Z,72.80
2022-10-19T05:26:12.581Z,72.54
2022-10-19T05:28:39.783Z,71.90
2022-10-19T05:31:11.847Z,73.10
2022-10-19T05:33:39.846Z,71.99
2022-10-19T05:36:27.190Z,72.29
2022-10-19T05:38:57.463Z,71.09
2022-10-19T05:41:26.397Z,71.12
2022-10-19T05:43:56.830Z,72.23
2022-10-19T05:46:27.830Z,72.25
2022-10-19T05:48:56.820Z,71.24
2022-10-19T05:51:25.338Z,71.21
2022-10-19T05:53:53.940Z,70.98
2022-10-19T05:56:24.191Z,72.39
2022-10-19T05:58:52.521Z,69.72
2022-10-19T06:01:20.545Z,70.27
2022-10-19T06:03:52.184Z,69.43
2022-10-19T06:06:21.623Z,69.78
2022-10-19T06:08:49.899Z,69.41
2022-10-19T06:11:23.047Z,69.05
2022-10-19T06:13:51.676Z,69.84
2022-10-19T06:16:20.995Z,68.78
2022-10-19T06:18:49.346Z,68.20
2022-10-19T06:21:19.183Z,68.64
2022-10-19T06:23:53.382Z,67.79
2022-10-19T06:26:22.812Z,67.93
2022-10-19T06:28:52.505Z,67.86
2022-10-19T06:31:19.572Z,68.16
2022-10-19T06:33:49.205Z,68.46
2022-10-19T06:36:22.167Z,68.31
2022-10-19T06:38:50.125Z,68.52
2022-10-19T06:41:19.633Z,68.11
2022-10-19T06:43:57.524Z,67.48
2022-10-19T06:46:27.556Z,67.42
2022-10-19T06:49:03.400Z,67.14
2022-10-19T06:51:32.746Z,67.40
2022-10-19T06:54:00.659Z,66.61
2022-10-19T06:56:30.923Z,66.31
2022-10-19T06:58:58.948Z,66.38
2022-10-19T07:01:26.299Z,66.05
2022-10-19T07:03:55.841Z,65.27
2022-10-19T07:06:24.152Z,64.79
2022-10-19T07:09:04.875Z,64.85
2022-10-19T07:11:33.349Z,64.65
2022-10-19T07:14:01.181Z,64.15
2022-10-19T07:16:29.552Z,63.66
2022-10-19T07:18:56.534Z,63.24
2022-10-19T07:21:27.129Z,62.52
2022-10-19T07:23:54.574Z,62.24
2022-10-19T07:26:27.018Z,61.67
2022-10-19T07:28:57.389Z,61.55
2022-10-19T07:31:26.673Z,60.62
2022-10-19T07:33:54.925Z,59.91
2022-10-19T07:36:22.367Z,60.19
2022-10-19T07:38:51.506Z,59.62
2022-10-19T07:41:22.950Z,60.15
2022-10-19T07:43:51.321Z,59.96
2022-10-19T07:46:24.568Z,60.25
2022-10-19T07:48:51.926Z,60.64
2022-10-19T07:51:20.361Z,60.39
2022-10-19T07:56:32.996Z,60.92
2022-10-19T07:59:01.898Z,61.44
2022-10-19T08:01:32.639Z,61.86
2022-10-19T08:06:50.841Z,62.97
2022-10-19T08:09:47.241Z,62.29
2022-10-19T08:12:07.162Z,62.10
2022-10-19T08:14:36.394Z,61.45
2022-10-19T08:17:03.357Z,61.40
2022-10-19T08:19:35.055Z,60.73
2022-10-19T08:22:09.210Z,60.95
2022-10-19T08:24:40.279Z,59.64
2022-10-19T08:27:08.796Z,58.81
2022-10-19T08:29:39.138Z,58.40
2022-10-19T08:32:11.772Z,57.44
2022-10-19T08:34:39.953Z,56.05
2022-10-19T08:37:19.935Z,56.13
2022-10-19T08:39:56.952Z,55.54
2022-10-19T08:42:32.116Z,55.46
2022-10-19T08:45:09.024Z,55.27
2022-10-19T08:47:53.982Z,55.13
2022-10-19T08:50:42.489Z,54.17
2022-10-19T08:53:17.293Z,53.42
2022-10-19T08:56:07.721Z,52.82
2022-10-19T08:59:00.983Z,51.79
2022-10-19T09:01:49.030Z,51.51
2022-10-19T09:04:59.557Z,50.86
2022-10-19T09:07:55.595Z,50.31
2022-10-19T09:10:34.861Z,51.48
2022-10-19T09:13:12.115Z,52.14
2022-10-19T09:15:47.019Z,51.62
2022-10-19T09:18:26.288Z,50.36
2022-10-19T09:21:11.135Z,49.69
2022-10-19T09:23:43.111Z,48.38
2022-10-19T09:26:23.117Z,47.77
2022-10-19T09:29:34.787Z,45.28
2022-10-19T09:32:05.468Z,44.97
2022-10-19T09:34:41.749Z,44.67
2022-10-19T09:37:08.772Z,45.11
2022-10-19T09:39:35.666Z,45.54
2022-10-19T09:42:36.979Z,44.24
2022-10-19T09:45:21.020Z,42.90
2022-10-19T09:47:48.865Z,43.74
2022-10-19T09:50:19.671Z,43.73
2022-10-19T09:52:55.934Z,42.35
2022-10-19T09:55:36.313Z,43.05
2022-10-19T09:58:13.179Z,42.59
2022-10-19T10:00:43.328Z,42.20
2022-10-19T10:03:23.684Z,42.36
2022-10-19T10:05:51.803Z,41.80
2022-10-19T10:08:24.002Z,41.55
2022-10-19T10:11:09.117Z,41.85
2022-10-19T10:13:50.412Z,41.84
2022-10-19T10:16:21.097Z,41.45
2022-10-19T10:18:58.432Z,41.18
2022-10-19T10:21:32.954Z,41.22
2022-10-19T10:24:09.068Z,40.57
2022-10-19T10:27:04.133Z,40.15
2022-10-19T10:29:36.664Z,40.27
2022-10-19T10:32:19.985Z,39.82
2022-10-19T10:35:08.133Z,38.92
2022-10-19T10:37:39.195Z,39.84
2022-10-19T10:40:25.101Z,39.63
2022-10-19T10:42:54.690Z,39.70
2022-10-19T10:45:45.235Z,39.32
2022-10-19T10:48:53.491Z,38.64
2022-10-19T10:51:49.242Z,38.33
2022-10-19T10:54:20.786Z,38.03
2022-10-19T10:57:20.859Z,37.81
2022-10-19T10:59:59.814Z,37.58
2022-10-19T11:02:50.333Z,37.60
2022-10-19T11:05:31.102Z,36.63
2022-10-19T11:08:19.364Z,36.12
2022-10-19T11:11:01.865Z,36.05
2022-10-19T11:13:41.141Z,35.93
2022-10-19T11:16:18.434Z,35.78
2022-10-19T11:22:05.210Z,35.39
2022-10-19T11:24:35.334Z,34.40
2022-10-19T11:27:22.172Z,34.47
2022-10-19T11:29:52.701Z,34.63
2022-10-19T11:32:35.025Z,35.22
2022-10-19T11:35:21.904Z,34.74
2022-10-19T11:38:20.032Z,31.05
2022-10-19T11:41:19.313Z,28.98
2022-10-19T11:44:17.414Z,27.70
2022-10-19T11:46:58.478Z,27.37
2022-10-19T11:49:42.964Z,26.42
2022-10-19T11:52:17.234Z,27.01
2022-10-19T11:54:56.893Z,27.06
2022-10-19T11:57:39.445Z,27.22
2022-10-19T12:00:21.089Z,26.71
2022-10-19T12:03:30.368Z,27.01
2022-10-19T12:06:14.817Z,27.64
2022-10-19T12:09:25.456Z,26.82
2022-10-19T12:12:20.089Z,26.83
2022-10-19T12:14:54.210Z,27.08
2022-10-19T12:17:28.117Z,27.24
2022-10-19T12:20:00.639Z,27.32
2022-10-19T12:22:34.106Z,27.79
2022-10-19T12:25:01.976Z,28.17
2022-10-19T12:27:35.959Z,27.94
2022-10-19T12:30:17.100Z,26.95
2022-10-19T12:33:28.144Z,26.51
2022-10-19T12:36:14.425Z,26.29
2022-10-19T12:39:09.084Z,27.15
2022-10-19T12:42:04.928Z,26.81
2022-10-19T12:45:00.705Z,26.99
2022-10-19T12:47:27.648Z,27.54
2022-10-19T12:49:55.719Z,26.70
2022-10-19T12:52:43.014Z,27.00
2022-10-19T12:55:34.825Z,27.18
2022-10-19T12:58:06.901Z,27.46
2022-10-19T13:00:37.837Z,27.62
2022-10-19T13:03:16.425Z,27.71
2022-10-19T13:05:57.472Z,27.91
2022-10-19T13:08:34.879Z,28.07
2022-10-19T13:11:17.774Z,28.46
2022-10-19T13:14:28.552Z,28.23
2022-10-19T13:17:01.164Z,28.73
2022-10-19T13:19:28.774Z,29.31
2022-10-19T13:22:04.420Z,29.03
2022-10-19T13:24:35.359Z,28.97
2022-10-19T13:27:02.312Z,29.06
2022-10-19T13:29:43.005Z,29.40
2022-10-19T13:32:35.458Z,29.44
2022-10-19T13:35:29.278Z,29.66
2022-10-19T13:38:10.277Z,29.41
2022-10-19T13:40:49.392Z,29.99
2022-10-19T13:43:30.454Z,29.69
2022-10-19T13:46:09.999Z,29.65
2022-10-19T13:49:02.375Z,29.41
2022-10-19T13:52:00.261Z,29.06
2022-10-19T13:58:53.398Z,29.07
2022-10-19T14:01:48.048Z,29.18
2022-10-19T14:04:44.923Z,28.89
2022-10-19T14:07:51.197Z,29.14
2022-10-19T14:10:32.666Z,29.13
2022-10-19T14:13:01.938Z,29.28
2022-10-19T14:15:31.660Z,29.44
2022-10-19T14:18:03.810Z,29.43
2022-10-19T14:20:38.877Z,29.18
2022-10-19T14:23:29.682Z,29.10
2022-10-19T14:26:22.712Z,29.02
2022-10-19T14:29:00.128Z,29.31
2022-10-19T14:31:36.395Z,29.29
2022-10-19T14:34:08.006Z,29.22
2022-10-19T14:36:50.229Z,29.61
2022-10-19T14:39:38.996Z,29.67
2022-10-19T14:42:09.866Z,29.62
2022-10-19T14:44:41.607Z,29.69
2022-10-19T14:47:23.596Z,29.58
2022-10-19T14:49:50.896Z,29.04
2022-10-19T14:52:48.092Z,29.26
2022-10-19T14:55:18.158Z,29.14
2022-10-19T14:57:58.705Z,29.21
2022-10-19T15:00:35.908Z,29.55
2022-10-19T15:03:07.591Z,29.38
2022-10-19T15:05:40.986Z,29.63
2022-10-19T15:08:21.927Z,29.77
2022-10-19T15:10:51.409Z,29.63
2022-10-19T15:13:31.765Z,29.54
2022-10-19T15:15:58.792Z,29.83
2022-10-19T15:18:48.185Z,29.97
2022-10-19T15:21:19.626Z,30.22
2022-10-19T15:23:51.580Z,30.44
2022-10-19T15:26:25.944Z,30.40
2022-10-19T15:28:57.017Z,30.40
2022-10-19T15:31:29.287Z,30.38
2022-10-19T15:33:58.718Z,30.33
2022-10-19T15:36:27.082Z,30.56
2022-10-19T15:39:18.073Z,30.72
2022-10-19T15:41:51.708Z,30.62
2022-10-19T15:44:42.325Z,30.81
2022-10-19T15:47:15.465Z,31.09
2022-10-19T15:49:44.916Z,31.50
2022-10-19T15:52:21.833Z,31.72
2022-10-19T15:54:50.229Z,31.93
2022-10-19T15:57:35.607Z,32.06
2022-10-19T16:00:14.462Z,32.37
2022-10-19T16:02:42.473Z,32.84
2022-10-19T16:05:14.016Z,32.83
2022-10-19T16:07:41.534Z,33.20
2022-10-19T16:10:17.537Z,33.37
2022-10-19T16:12:45.193Z,33.64
2022-10-19T16:15:23.462Z,33.86
2022-10-19T16:17:54.560Z,34.11
2022-10-19T16:20:22.586Z,33.87
2022-10-19T16:22:49.799Z,33.86
2022-10-19T16:25:18.969Z,34.41
2022-10-19T16:27:45.982Z,34.48
2022-10-19T16:30:20.125Z,34.81
2022-10-19T16:32:51.136Z,34.88
2022-10-19T16:35:18.038Z,34.61
2022-10-19T16:37:44.945Z,35.04
2022-10-19T16:40:13.152Z,35.00
2022-10-19T16:42:40.121Z,34.90
2022-10-19T16:45:07.667Z,35.23
2022-10-19T16:47:34.686Z,34.95
2022-10-19T16:50:04.347Z,34.77
2022-10-19T16:52:33.258Z,34.92
2022-10-19T16:55:00.559Z,35.25
2022-10-19T16:57:27.474Z,34.97
2022-10-19T16:59:54.498Z,35.08
2022-10-19T17:02:24.511Z,35.34
2022-10-19T17:04:51.747Z,35.25
2022-10-19T17:07:19.681Z,35.36
2022-10-19T17:09:47.929Z,35.20
2022-10-19T17:12:16.824Z,35.37
2022-10-19T17:14:45.051Z,35.34
2022-10-19T17:17:14.512Z,35.59
2022-10-19T17:19:41.415Z,35.66
2022-10-19T17:22:08.468Z,35.33
2022-10-19T17:24:37.350Z,35.90
2022-10-19T17:27:04.715Z,36.01
2022-10-19T17:29:31.628Z,36.13
2022-10-19T17:32:00.344Z,36.17
2022-10-19T17:34:27.480Z,36.50
2022-10-19T17:36:54.955Z,36.02
2022-10-19T17:39:27.198Z,36.41
2022-10-19T17:42:01.699Z,35.49
2022-10-19T17:44:30.671Z,35.92
2022-10-19T17:46:59.140Z,35.93
2022-10-19T17:49:26.106Z,35.80
2022-10-19T17:51:53.829Z,36.09
2022-10-19T17:54:20.890Z,36.22
2022-10-19T17:56:48.004Z,36.34
2022-10-19T17:59:14.940Z,36.26
2022-10-19T18:01:42.261Z,36.55
2022-10-19T18:04:09.120Z,37.22
2022-10-19T18:06:39.700Z,37.17
2022-10-19T18:09:15.164Z,37.29
2022-10-19T18:11:45.175Z,37.75
2022-10-19T18:14:13.782Z,37.55
2022-10-19T18:17:01.176Z,37.76
2022-10-19T18:19:28.065Z,37.57
2022-10-19T18:21:56.362Z,37.41
2022-10-19T18:24:24.674Z,37.47
2022-10-19T18:26:52.021Z,37.06
2022-10-19T18:29:22.353Z,37.24
2022-10-19T18:31:57.676Z,37.23
2022-10-19T18:34:37.642Z,37.55
2022-10-19T18:37:07.422Z,37.38
2022-10-19T18:39:34.493Z,37.21
2022-10-19T18:42:01.416Z,36.84
2022-10-19T18:44:30.398Z,36.79
2022-10-19T18:47:01.093Z,36.67
2022-10-19T18:49:30.579Z,36.26
2022-10-19T18:51:58.538Z,36.14
2022-10-19T18:54:27.903Z,36.35
2022-10-19T18:57:00.243Z,36.08
2022-10-19T19:01:54.898Z,35.91
2022-10-19T19:04:29.921Z,36.31
2022-10-19T19:07:13.546Z,36.85
2022-10-19T19:09:40.606Z,38.30
2022-10-19T19:12:07.512Z,38.68
2022-10-19T19:14:34.541Z,39.90
2022-10-19T19:17:01.577Z,40.29
2022-10-19T19:19:29.819Z,40.31
2022-10-19T19:21:56.865Z,41.50
2022-10-19T19:24:28.036Z,40.80
2022-10-19T19:26:55.339Z,41.33
2022-10-19T19:29:22.339Z,41.59
2022-10-19T19:31:50.141Z,42.20
2022-10-19T19:34:17.593Z,42.29
2022-10-19T19:36:49.308Z,42.51
2022-10-19T19:39:21.820Z,42.58
2022-10-19T19:41:50.007Z,42.17
2022-10-19T19:44:19.121Z,42.83
2022-10-19T19:46:47.402Z,41.80
2022-10-19T19:49:15.862Z,39.92
2022-10-19T19:51:43.476Z,38.69
2022-10-19T19:54:11.478Z,37.66
2022-10-19T19:56:39.776Z,37.24
2022-10-19T19:59:06.664Z,36.92
2022-10-19T20:01:33.943Z,36.82
2022-10-19T20:06:30.058Z,36.28
2022-10-19T20:08:57.500Z,36.16
2022-10-19T20:11:28.960Z,36.31
2022-10-19T20:13:56.554Z,36.14
2022-10-19T20:16:29.252Z,36.68
2022-10-19T20:19:01.322Z,37.06
2022-10-19T20:21:28.636Z,38.46
2022-10-19T20:23:55.458Z,39.40
2022-10-19T20:26:24.016Z,38.74
2022-10-19T20:28:52.038Z,39.45
2022-10-19T20:31:20.487Z,39.50
2022-10-19T20:33:47.977Z,39.08
2022-10-19T20:36:16.375Z,38.94
2022-10-19T20:38:54.415Z,39.21
2022-10-19T20:41:23.537Z,38.98
2022-10-19T20:44:11.456Z,40.05
2022-10-19T20:46:41.187Z,40.89
2022-10-19T20:49:08.195Z,41.13
2022-10-19T21:42:28.338Z,45.38
2022-10-19T21:45:06.292Z,46.45
2022-10-19T21:47:42.362Z,46.84
2022-10-19T21:50:09.334Z,46.98
2022-10-19T21:52:36.181Z,47.29
2022-10-19T21:55:03.190Z,47.39
2022-10-19T21:57:30.021Z,47.54
2022-10-19T21:59:56.979Z,48.00
2022-10-19T22:02:25.187Z,48.01
2022-10-19T22:04:51.999Z,48.09
2022-10-19T22:07:18.852Z,48.38
2022-10-19T22:09:46.008Z,48.03
2022-10-19T22:14:44.890Z,47.85
2022-10-19T22:17:11.826Z,48.67
2022-10-19T22:19:38.709Z,48.87
2022-10-19T22:22:05.642Z,48.45
2022-10-19T22:24:34.666Z,48.39
2022-10-19T22:27:01.550Z,49.64
2022-10-19T22:29:28.402Z,49.76
2022-10-19T22:31:55.269Z,50.53
2022-10-19T22:34:22.138Z,50.40
2022-10-19T22:36:50.148Z,50.65
2022-10-19T22:39:17.304Z,50.47
2022-10-19T22:42:21.451Z,50.03
2022-10-19T22:45:27.782Z,49.74
2022-10-19T22:48:31.599Z,50.68
2022-10-19T22:51:35.943Z,50.79
2022-10-19T22:54:04.149Z,50.12
2022-10-19T22:56:31.102Z,50.28
2022-10-19T22:58:59.497Z,50.77
2022-10-19T23:01:26.616Z,50.99
2022-10-19T23:03:55.006Z,50.74
2022-10-19T23:06:22.075Z,50.53
2022-10-19T23:08:49.439Z,50.82
2022-10-19T23:11:16.675Z,54.67
2022-10-19T23:13:45.946Z,55.96
2022-10-19T23:16:12.949Z,56.59
2022-10-19T23:18:41.212Z,55.97
2022-10-19T23:21:11.799Z,55.86
2022-10-19T23:23:40.036Z,55.85
2022-10-19T23:26:10.150Z,55.05
2022-10-19T23:28:39.026Z,56.06
2022-10-19T23:31:09.522Z,56.00
2022-10-19T23:33:37.151Z,56.29
2022-10-19T23:36:09.092Z,56.07
2022-10-19T23:38:37.205Z,55.76
2022-10-19T23:41:04.267Z,55.70
2022-10-19T23:43:31.452Z,55.66
2022-10-19T23:45:58.661Z,55.55
2022-10-19T23:48:26.164Z,55.70
2022-10-19T23:51:00.195Z,55.67
2022-10-19T23:53:28.573Z,52.61
2022-10-19T23:56:01.808Z,51.35
2022-10-19T23:58:29.312Z,50.75
